sensor_id;sensor_type;location;lat;lon;timestamp;pressure;altitude;pressure_sealevel;temperature;humidity
9855;BME280;4966;48.112;9.282;2023-04-27T00:00:30;94719.09;;;9.26;69.90
9855;BME280;4966;48.112;9.282;2023-04-27T00:02:56;94720.44;;;9.20;68.31
9855;BME280;4966;48.112;9.282;2023-04-27T00:05:24;94716.13;;;8.89;69.88
9855;BME280;4966;48.112;9.282;2023-04-27T00:07:50;94717.69;;;8.90;70.32
9855;BME280;4966;48.112;9.282;2023-04-27T00:10:16;94714.00;;;8.94;70.67
9855;BME280;4966;48.112;9.282;2023-04-27T00:12:44;94720.84;;;9.01;70.32
9855;BME280;4966;48.112;9.282;2023-04-27T00:15:12;94709.91;;;8.88;70.65
9855;BME280;4966;48.112;9.282;2023-04-27T00:17:41;94719.66;;;8.81;71.06
9855;BME280;4966;48.112;9.282;2023-04-27T00:20:08;94726.19;;;8.80;71.18
9855;BME280;4966;48.112;9.282;2023-04-27T00:22:37;94717.56;;;8.86;71.18
9855;BME280;4966;48.112;9.282;2023-04-27T00:25:07;94714.31;;;8.93;70.14
9855;BME280;4966;48.112;9.282;2023-04-27T00:27:35;94716.03;;;8.68;71.52
9855;BME280;4966;48.112;9.282;2023-04-27T00:30:01;94709.72;;;8.55;72.49
9855;BME280;4966;48.112;9.282;2023-04-27T00:32:27;94712.63;;;8.41;72.67
9855;BME280;4966;48.112;9.282;2023-04-27T00:35:03;94708.09;;;8.63;71.48
9855;BME280;4966;48.112;9.282;2023-04-27T00:37:29;94699.75;;;8.68;70.76
9855;BME280;4966;48.112;9.282;2023-04-27T00:39:55;94709.25;;;8.44;71.89
9855;BME280;4966;48.112;9.282;2023-04-27T00:42:21;94707.78;;;8.56;71.77
9855;BME280;4966;48.112;9.282;2023-04-27T00:44:49;94707.09;;;8.67;71.56
9855;BME280;4966;48.112;9.282;2023-04-27T00:47:15;94703.66;;;8.88;70.58
9855;BME280;4966;48.112;9.282;2023-04-27T00:49:42;94696.56;;;8.75;71.16
9855;BME280;4966;48.112;9.282;2023-04-27T00:52:10;94697.22;;;8.63;70.40
9855;BME280;4966;48.112;9.282;2023-04-27T00:54:36;94697.56;;;8.61;71.08
9855;BME280;4966;48.112;9.282;2023-04-27T00:57:05;94702.84;;;8.58;71.39
9855;BME280;4966;48.112;9.282;2023-04-27T00:59:31;94699.28;;;8.66;71.19
9855;BME280;4966;48.112;9.282;2023-04-27T01:01:57;94697.41;;;8.58;71.23
9855;BME280;4966;48.112;9.282;2023-04-27T01:04:26;94703.81;;;8.53;70.31
9855;BME280;4966;48.112;9.282;2023-04-27T01:06:53;94693.88;;;8.66;68.83
9855;BME280;4966;48.112;9.282;2023-04-27T01:09:21;94707.91;;;8.59;68.95
9855;BME280;4966;48.112;9.282;2023-04-27T01:11:49;94693.09;;;8.57;69.22
9855;BME280;4966;48.112;9.282;2023-04-27T01:14:17;94705.59;;;8.40;69.87
9855;BME280;4966;48.112;9.282;2023-04-27T01:16:49;94702.41;;;8.29;70.69
9855;BME280;4966;48.112;9.282;2023-04-27T01:19:17;94705.78;;;8.26;71.31
9855;BME280;4966;48.112;9.282;2023-04-27T01:21:46;94711.19;;;8.26;71.50
9855;BME280;4966;48.112;9.282;2023-04-27T01:24:12;94712.59;;;8.32;71.34
9855;BME280;4966;48.112;9.282;2023-04-27T01:26:39;94716.75;;;8.30;70.63
9855;BME280;4966;48.112;9.282;2023-04-27T01:29:05;94718.53;;;8.17;70.80
9855;BME280;4966;48.112;9.282;2023-04-27T01:31:31;94708.50;;;8.09;71.00
9855;BME280;4966;48.112;9.282;2023-04-27T01:33:57;94719.50;;;7.86;71.94
9855;BME280;4966;48.112;9.282;2023-04-27T01:36:26;94712.97;;;7.96;71.82
9855;BME280;4966;48.112;9.282;2023-04-27T01:38:52;94719.50;;;7.78;72.32
9855;BME280;4966;48.112;9.282;2023-04-27T01:41:20;94726.63;;;7.30;74.37
9855;BME280;4966;48.112;9.282;2023-04-27T01:43:46;94714.25;;;7.38;74.02
9855;BME280;4966;48.112;9.282;2023-04-27T01:46:13;94719.34;;;7.48;73.40
9855;BME280;4966;48.112;9.282;2023-04-27T01:48:42;94718.22;;;7.58;72.82
9855;BME280;4966;48.112;9.282;2023-04-27T01:51:08;94705.66;;;7.71;71.91
9855;BME280;4966;48.112;9.282;2023-04-27T01:53:36;94709.94;;;7.45;72.62
9855;BME280;4966;48.112;9.282;2023-04-27T01:56:05;94711.84;;;7.36;73.61
9855;BME280;4966;48.112;9.282;2023-04-27T01:58:37;94718.53;;;7.39;73.28
9855;BME280;4966;48.112;9.282;2023-04-27T02:01:09;94716.78;;;7.52;73.10
9855;BME280;4966;48.112;9.282;2023-04-27T02:03:35;94719.81;;;7.59;72.81
9855;BME280;4966;48.112;9.282;2023-04-27T02:06:01;94722.56;;;7.76;72.32
9855;BME280;4966;48.112;9.282;2023-04-27T02:08:27;94726.53;;;7.79;72.03
9855;BME280;4966;48.112;9.282;2023-04-27T02:10:53;94718.56;;;7.91;70.41
9855;BME280;4966;48.112;9.282;2023-04-27T02:13:20;94718.25;;;7.93;70.45
9855;BME280;4966;48.112;9.282;2023-04-27T02:15:46;94719.97;;;7.97;70.94
9855;BME280;4966;48.112;9.282;2023-04-27T02:18:14;94710.72;;;8.16;70.39
9855;BME280;4966;48.112;9.282;2023-04-27T02:20:40;94722.38;;;7.99;71.69
9855;BME280;4966;48.112;9.282;2023-04-27T02:23:06;94721.56;;;7.89;72.24
9855;BME280;4966;48.112;9.282;2023-04-27T02:25:38;94727.13;;;8.02;71.53
9855;BME280;4966;48.112;9.282;2023-04-27T02:28:18;94720.28;;;8.22;69.95
9855;BME280;4966;48.112;9.282;2023-04-27T02:30:44;94715.34;;;8.06;70.49
9855;BME280;4966;48.112;9.282;2023-04-27T02:33:10;94723.00;;;8.22;70.50
9855;BME280;4966;48.112;9.282;2023-04-27T02:35:36;94731.75;;;8.27;70.06
9855;BME280;4966;48.112;9.282;2023-04-27T02:38:07;94717.69;;;8.34;70.36
9855;BME280;4966;48.112;9.282;2023-04-27T02:40:33;94719.31;;;8.44;70.47
9855;BME280;4966;48.112;9.282;2023-04-27T02:43:01;94718.34;;;8.40;70.86
9855;BME280;4966;48.112;9.282;2023-04-27T02:45:35;94723.88;;;8.52;70.35
9855;BME280;4966;48.112;9.282;2023-04-27T02:48:00;94717.06;;;8.46;68.95
9855;BME280;4966;48.112;9.282;2023-04-27T02:50:29;94721.19;;;8.35;69.02
9855;BME280;4966;48.112;9.282;2023-04-27T02:52:55;94714.06;;;8.13;70.45
9855;BME280;4966;48.112;9.282;2023-04-27T02:55:20;94722.53;;;7.94;71.18
9855;BME280;4966;48.112;9.282;2023-04-27T02:57:49;94722.84;;;8.09;70.55
9855;BME280;4966;48.112;9.282;2023-04-27T03:00:18;94721.25;;;8.08;70.70
9855;BME280;4966;48.112;9.282;2023-04-27T03:02:44;94723.59;;;8.19;70.80
9855;BME280;4966;48.112;9.282;2023-04-27T03:05:13;94713.09;;;8.43;70.62
9855;BME280;4966;48.112;9.282;2023-04-27T03:07:39;94720.56;;;8.46;69.55
9855;BME280;4966;48.112;9.282;2023-04-27T03:10:05;94720.22;;;8.57;69.41
9855;BME280;4966;48.112;9.282;2023-04-27T03:12:31;94720.25;;;8.48;69.68
9855;BME280;4966;48.112;9.282;2023-04-27T03:14:59;94713.53;;;8.54;69.66
9855;BME280;4966;48.112;9.282;2023-04-27T03:17:26;94716.69;;;8.65;68.72
9855;BME280;4966;48.112;9.282;2023-04-27T03:19:52;94718.31;;;8.57;69.18
9855;BME280;4966;48.112;9.282;2023-04-27T03:22:17;94724.06;;;8.47;70.48
9855;BME280;4966;48.112;9.282;2023-04-27T03:24:46;94727.59;;;8.30;71.41
9855;BME280;4966;48.112;9.282;2023-04-27T03:27:14;94728.81;;;8.59;70.97
9855;BME280;4966;48.112;9.282;2023-04-27T03:29:40;94724.66;;;8.61;70.78
9855;BME280;4966;48.112;9.282;2023-04-27T03:32:08;94732.63;;;8.66;70.86
9855;BME280;4966;48.112;9.282;2023-04-27T03:34:34;94733.59;;;8.62;71.21
9855;BME280;4966;48.112;9.282;2023-04-27T03:37:01;94725.19;;;8.37;72.55
9855;BME280;4966;48.112;9.282;2023-04-27T03:39:31;94729.47;;;8.56;71.39
9855;BME280;4966;48.112;9.282;2023-04-27T03:42:00;94734.88;;;8.64;70.27
9855;BME280;4966;48.112;9.282;2023-04-27T03:44:30;94735.00;;;8.77;69.75
9855;BME280;4966;48.112;9.282;2023-04-27T03:46:58;94730.69;;;8.76;69.56
9855;BME280;4966;48.112;9.282;2023-04-27T03:49:26;94720.00;;;8.70;70.36
9855;BME280;4966;48.112;9.282;2023-04-27T03:51:52;94731.16;;;8.69;70.30
9855;BME280;4966;48.112;9.282;2023-04-27T03:54:18;94740.03;;;8.31;71.55
9855;BME280;4966;48.112;9.282;2023-04-27T03:56:44;94743.72;;;8.18;72.43
9855;BME280;4966;48.112;9.282;2023-04-27T03:59:10;94742.56;;;8.27;71.93
9855;BME280;4966;48.112;9.282;2023-04-27T04:01:36;94734.75;;;8.35;71.82
9855;BME280;4966;48.112;9.282;2023-04-27T04:04:04;94746.25;;;8.23;72.48
9855;BME280;4966;48.112;9.282;2023-04-27T04:06:32;94740.97;;;8.35;72.10
9855;BME280;4966;48.112;9.282;2023-04-27T04:09:01;94744.78;;;8.51;70.83
9855;BME280;4966;48.112;9.282;2023-04-27T04:11:31;94743.69;;;8.52;70.36
9855;BME280;4966;48.112;9.282;2023-04-27T04:13:59;94742.72;;;8.57;69.93
9855;BME280;4966;48.112;9.282;2023-04-27T04:16:28;94745.88;;;8.59;69.47
9855;BME280;4966;48.112;9.282;2023-04-27T04:18:59;94737.91;;;8.63;69.59
9855;BME280;4966;48.112;9.282;2023-04-27T04:21:30;94742.97;;;8.73;70.35
9855;BME280;4966;48.112;9.282;2023-04-27T04:23:58;94746.03;;;8.71;69.83
9855;BME280;4966;48.112;9.282;2023-04-27T04:26:24;94751.47;;;8.63;70.70
9855;BME280;4966;48.112;9.282;2023-04-27T04:28:54;94748.75;;;8.71;70.67
9855;BME280;4966;48.112;9.282;2023-04-27T04:31:23;94748.56;;;8.77;69.69
9855;BME280;4966;48.112;9.282;2023-04-27T04:33:49;94753.16;;;8.85;70.31
9855;BME280;4966;48.112;9.282;2023-04-27T04:36:15;94744.41;;;8.79;70.95
9855;BME280;4966;48.112;9.282;2023-04-27T04:38:41;94750.13;;;8.78;70.99
9855;BME280;4966;48.112;9.282;2023-04-27T04:41:07;94757.97;;;8.70;71.40
9855;BME280;4966;48.112;9.282;2023-04-27T04:43:32;94758.13;;;8.74;71.42
9855;BME280;4966;48.112;9.282;2023-04-27T04:46:01;94766.13;;;8.70;70.47
9855;BME280;4966;48.112;9.282;2023-04-27T04:48:27;94764.28;;;8.92;68.88
9855;BME280;4966;48.112;9.282;2023-04-27T04:50:53;94760.72;;;9.09;66.79
9855;BME280;4966;48.112;9.282;2023-04-27T04:53:19;94759.16;;;8.99;67.83
9855;BME280;4966;48.112;9.282;2023-04-27T04:55:45;94759.28;;;8.64;69.13
9855;BME280;4966;48.112;9.282;2023-04-27T04:58:13;94759.16;;;8.99;68.74
9855;BME280;4966;48.112;9.282;2023-04-27T05:00:42;94758.88;;;9.22;69.17
9855;BME280;4966;48.112;9.282;2023-04-27T05:03:08;94764.00;;;9.23;68.94
9855;BME280;4966;48.112;9.282;2023-04-27T05:05:37;94765.63;;;9.15;68.74
9855;BME280;4966;48.112;9.282;2023-04-27T05:08:02;94761.88;;;9.29;68.40
9855;BME280;4966;48.112;9.282;2023-04-27T05:10:28;94766.59;;;9.41;68.57
9855;BME280;4966;48.112;9.282;2023-04-27T05:12:56;94765.28;;;9.55;68.14
9855;BME280;4966;48.112;9.282;2023-04-27T05:15:22;94765.19;;;9.64;67.92
9855;BME280;4966;48.112;9.282;2023-04-27T05:17:50;94753.59;;;9.55;66.88
9855;BME280;4966;48.112;9.282;2023-04-27T05:20:19;94750.75;;;9.51;66.67
9855;BME280;4966;48.112;9.282;2023-04-27T05:22:44;94752.81;;;9.54;67.04
9855;BME280;4966;48.112;9.282;2023-04-27T05:25:10;94747.72;;;9.53;67.49
9855;BME280;4966;48.112;9.282;2023-04-27T05:27:41;94750.69;;;9.60;67.43
9855;BME280;4966;48.112;9.282;2023-04-27T05:30:08;94744.44;;;9.59;66.36
9855;BME280;4966;48.112;9.282;2023-04-27T05:32:34;94755.13;;;9.65;65.89
9855;BME280;4966;48.112;9.282;2023-04-27T05:35:01;94743.53;;;9.76;66.24
9855;BME280;4966;48.112;9.282;2023-04-27T05:37:31;94752.09;;;9.87;66.81
9855;BME280;4966;48.112;9.282;2023-04-27T05:39:59;94750.44;;;10.16;66.21
9855;BME280;4966;48.112;9.282;2023-04-27T05:42:25;94755.44;;;10.26;63.59
9855;BME280;4966;48.112;9.282;2023-04-27T05:44:53;94753.47;;;9.93;65.83
9855;BME280;4966;48.112;9.282;2023-04-27T05:47:19;94758.66;;;9.65;65.96
9855;BME280;4966;48.112;9.282;2023-04-27T05:49:51;94765.69;;;10.29;63.55
9855;BME280;4966;48.112;9.282;2023-04-27T05:52:20;94759.78;;;10.60;60.70
9855;BME280;4966;48.112;9.282;2023-04-27T05:54:52;94767.56;;;10.83;58.54
9855;BME280;4966;48.112;9.282;2023-04-27T05:57:18;94768.97;;;11.01;59.29
9855;BME280;4966;48.112;9.282;2023-04-27T05:59:46;94771.00;;;11.29;58.65
9855;BME280;4966;48.112;9.282;2023-04-27T06:02:16;94782.22;;;11.27;58.02
9855;BME280;4966;48.112;9.282;2023-04-27T06:04:42;94773.16;;;11.48;57.73
9855;BME280;4966;48.112;9.282;2023-04-27T06:07:09;94784.53;;;11.38;58.28
9855;BME280;4966;48.112;9.282;2023-04-27T06:09:40;94787.03;;;11.31;59.11
9855;BME280;4966;48.112;9.282;2023-04-27T06:12:09;94788.84;;;11.39;58.75
9855;BME280;4966;48.112;9.282;2023-04-27T06:14:36;94792.13;;;11.69;57.30
9855;BME280;4966;48.112;9.282;2023-04-27T06:17:08;94796.78;;;11.68;57.95
9855;BME280;4966;48.112;9.282;2023-04-27T06:19:36;94795.53;;;11.90;56.78
9855;BME280;4966;48.112;9.282;2023-04-27T06:22:05;94804.47;;;12.03;56.54
9855;BME280;4966;48.112;9.282;2023-04-27T06:24:31;94807.28;;;12.19;54.60
9855;BME280;4966;48.112;9.282;2023-04-27T06:27:00;94812.31;;;11.56;56.56
9855;BME280;4966;48.112;9.282;2023-04-27T06:29:26;94821.72;;;11.09;58.39
9855;BME280;4966;48.112;9.282;2023-04-27T06:31:52;94816.66;;;11.69;55.72
9855;BME280;4966;48.112;9.282;2023-04-27T06:34:18;94817.66;;;11.77;54.29
9855;BME280;4966;48.112;9.282;2023-04-27T06:36:44;94809.84;;;12.00;54.27
9855;BME280;4966;48.112;9.282;2023-04-27T06:39:10;94809.63;;;12.33;53.49
9855;BME280;4966;48.112;9.282;2023-04-27T06:41:35;94801.06;;;12.47;54.12
9855;BME280;4966;48.112;9.282;2023-04-27T06:44:01;94810.22;;;12.54;54.58
9855;BME280;4966;48.112;9.282;2023-04-27T06:46:27;94816.09;;;12.69;52.67
9855;BME280;4966;48.112;9.282;2023-04-27T06:48:53;94815.31;;;12.68;53.04
9855;BME280;4966;48.112;9.282;2023-04-27T06:51:22;94804.97;;;12.90;51.77
9855;BME280;4966;48.112;9.282;2023-04-27T06:53:48;94810.19;;;13.11;49.11
9855;BME280;4966;48.112;9.282;2023-04-27T06:56:13;94809.16;;;13.15;49.82
9855;BME280;4966;48.112;9.282;2023-04-27T06:58:39;94806.81;;;13.30;50.28
9855;BME280;4966;48.112;9.282;2023-04-27T07:01:05;94805.91;;;13.57;49.02
9855;BME280;4966;48.112;9.282;2023-04-27T07:03:34;94809.56;;;13.02;51.82
9855;BME280;4966;48.112;9.282;2023-04-27T07:06:05;94806.78;;;12.70;52.40
9855;BME280;4966;48.112;9.282;2023-04-27T07:08:31;94820.94;;;11.70;55.58
9855;BME280;4966;48.112;9.282;2023-04-27T07:11:00;94809.66;;;12.61;52.52
9855;BME280;4966;48.112;9.282;2023-04-27T07:13:26;94818.41;;;12.54;51.80
9855;BME280;4966;48.112;9.282;2023-04-27T07:15:54;94823.22;;;12.73;51.33
9855;BME280;4966;48.112;9.282;2023-04-27T07:18:25;94809.91;;;12.84;51.16
9855;BME280;4966;48.112;9.282;2023-04-27T07:20:53;94809.53;;;13.30;49.70
9855;BME280;4966;48.112;9.282;2023-04-27T07:23:25;94804.25;;;13.53;48.93
9855;BME280;4966;48.112;9.282;2023-04-27T07:25:51;94812.00;;;13.67;48.66
9855;BME280;4966;48.112;9.282;2023-04-27T07:28:17;94813.91;;;13.03;50.09
9855;BME280;4966;48.112;9.282;2023-04-27T07:30:43;94811.66;;;13.68;49.07
9855;BME280;4966;48.112;9.282;2023-04-27T07:33:12;94813.31;;;13.89;45.78
9855;BME280;4966;48.112;9.282;2023-04-27T07:35:38;94814.59;;;14.30;45.65
9855;BME280;4966;48.112;9.282;2023-04-27T07:38:04;94810.13;;;14.22;45.84
9855;BME280;4966;48.112;9.282;2023-04-27T07:40:31;94804.25;;;14.20;46.95
9855;BME280;4966;48.112;9.282;2023-04-27T07:43:00;94812.25;;;13.61;47.10
9855;BME280;4966;48.112;9.282;2023-04-27T07:45:27;94804.53;;;13.99;46.87
9855;BME280;4966;48.112;9.282;2023-04-27T07:47:59;94806.75;;;14.29;46.27
9855;BME280;4966;48.112;9.282;2023-04-27T07:50:29;94799.69;;;14.08;47.79
9855;BME280;4966;48.112;9.282;2023-04-27T07:52:55;94797.72;;;14.09;47.72
9855;BME280;4966;48.112;9.282;2023-04-27T07:55:22;94796.75;;;14.36;47.74
9855;BME280;4966;48.112;9.282;2023-04-27T07:57:49;94799.00;;;14.70;46.01
9855;BME280;4966;48.112;9.282;2023-04-27T08:00:18;94803.56;;;14.62;47.30
9855;BME280;4966;48.112;9.282;2023-04-27T08:02:44;94806.41;;;13.95;48.48
9855;BME280;4966;48.112;9.282;2023-04-27T08:05:10;94795.78;;;14.64;47.53
9855;BME280;4966;48.112;9.282;2023-04-27T08:07:39;94806.09;;;15.13;46.51
9855;BME280;4966;48.112;9.282;2023-04-27T08:10:07;94800.75;;;15.43;45.92
9855;BME280;4966;48.112;9.282;2023-04-27T08:12:33;94804.53;;;15.81;44.48
9855;BME280;4966;48.112;9.282;2023-04-27T08:14:59;94803.59;;;15.27;46.62
9855;BME280;4966;48.112;9.282;2023-04-27T08:17:25;94809.53;;;15.52;45.39
9855;BME280;4966;48.112;9.282;2023-04-27T08:19:51;94812.03;;;15.38;44.79
9855;BME280;4966;48.112;9.282;2023-04-27T08:22:17;94807.81;;;15.90;43.55
9855;BME280;4966;48.112;9.282;2023-04-27T08:24:43;94809.91;;;16.01;44.68
9855;BME280;4966;48.112;9.282;2023-04-27T08:27:09;94811.28;;;15.87;45.41
9855;BME280;4966;48.112;9.282;2023-04-27T08:29:35;94804.38;;;16.54;43.84
9855;BME280;4966;48.112;9.282;2023-04-27T08:32:04;94789.84;;;16.84;42.61
9855;BME280;4966;48.112;9.282;2023-04-27T08:34:30;94796.91;;;16.85;43.37
9855;BME280;4966;48.112;9.282;2023-04-27T08:36:56;94792.97;;;16.52;43.92
9855;BME280;4966;48.112;9.282;2023-04-27T08:39:23;94797.22;;;15.66;45.72
9855;BME280;4966;48.112;9.282;2023-04-27T08:41:49;94794.13;;;16.21;44.03
9855;BME280;4966;48.112;9.282;2023-04-27T08:44:17;94790.00;;;16.34;43.31
9855;BME280;4966;48.112;9.282;2023-04-27T08:46:43;94782.28;;;14.94;47.39
9855;BME280;4966;48.112;9.282;2023-04-27T08:49:09;94786.59;;;16.14;46.82
9855;BME280;4966;48.112;9.282;2023-04-27T08:51:40;94779.66;;;16.24;45.21
9855;BME280;4966;48.112;9.282;2023-04-27T08:54:06;94777.94;;;16.76;42.89
9855;BME280;4966;48.112;9.282;2023-04-27T08:56:33;94780.16;;;16.93;42.06
9855;BME280;4966;48.112;9.282;2023-04-27T08:59:00;94774.91;;;17.18;42.22
9855;BME280;4966;48.112;9.282;2023-04-27T09:01:29;94773.94;;;17.00;41.69
9855;BME280;4966;48.112;9.282;2023-04-27T09:03:59;94784.69;;;17.16;42.18
9855;BME280;4966;48.112;9.282;2023-04-27T09:06:33;94784.28;;;17.14;42.25
9855;BME280;4966;48.112;9.282;2023-04-27T09:08:59;94778.09;;;16.87;42.28
9855;BME280;4966;48.112;9.282;2023-04-27T09:11:30;94774.78;;;17.49;42.40
9855;BME280;4966;48.112;9.282;2023-04-27T09:13:58;94770.97;;;17.60;41.63
9855;BME280;4966;48.112;9.282;2023-04-27T09:16:26;94769.03;;;18.20;41.47
9855;BME280;4966;48.112;9.282;2023-04-27T09:18:52;94774.69;;;17.86;42.10
9855;BME280;4966;48.112;9.282;2023-04-27T09:21:32;94770.28;;;18.33;39.92
9855;BME280;4966;48.112;9.282;2023-04-27T09:24:08;94772.53;;;18.94;39.09
9855;BME280;4966;48.112;9.282;2023-04-27T09:26:36;94773.72;;;18.96;38.19
9855;BME280;4966;48.112;9.282;2023-04-27T09:29:02;94769.44;;;19.06;38.73
9855;BME280;4966;48.112;9.282;2023-04-27T09:31:34;94777.63;;;18.11;40.54
9855;BME280;4966;48.112;9.282;2023-04-27T09:34:00;94773.78;;;17.71;41.28
9855;BME280;4966;48.112;9.282;2023-04-27T09:36:26;94777.34;;;18.31;39.21
9855;BME280;4966;48.112;9.282;2023-04-27T09:38:52;94770.00;;;17.87;40.86
9855;BME280;4966;48.112;9.282;2023-04-27T09:41:18;94776.78;;;18.00;40.89
9855;BME280;4966;48.112;9.282;2023-04-27T09:43:45;94767.75;;;17.51;40.24
9855;BME280;4966;48.112;9.282;2023-04-27T09:46:12;94772.81;;;17.49;39.31
9855;BME280;4966;48.112;9.282;2023-04-27T09:48:41;94775.56;;;17.49;40.40
9855;BME280;4966;48.112;9.282;2023-04-27T09:51:10;94775.69;;;17.63;39.67
9855;BME280;4966;48.112;9.282;2023-04-27T10:01:42;94773.31;;;17.62;39.75
9855;BME280;4966;48.112;9.282;2023-04-27T10:07:06;94768.63;;;17.62;39.82
9855;BME280;4966;48.112;9.282;2023-04-27T10:09:40;94774.91;;;17.63;41.01
9855;BME280;4966;48.112;9.282;2023-04-27T10:12:36;94768.84;;;16.68;42.02
9855;BME280;4966;48.112;9.282;2023-04-27T10:15:13;94774.47;;;17.16;41.52
9855;BME280;4966;48.112;9.282;2023-04-27T10:17:46;94770.38;;;17.85;41.27
9855;BME280;4966;48.112;9.282;2023-04-27T10:20:13;94762.06;;;18.40;38.64
9855;BME280;4966;48.112;9.282;2023-04-27T10:22:48;94762.41;;;19.37;37.35
9855;BME280;4966;48.112;9.282;2023-04-27T10:25:26;94766.72;;;19.45;37.83
9855;BME280;4966;48.112;9.282;2023-04-27T10:27:58;94769.44;;;19.09;36.99
9855;BME280;4966;48.112;9.282;2023-04-27T10:30:26;94774.19;;;18.28;38.45
9855;BME280;4966;48.112;9.282;2023-04-27T10:33:04;94765.22;;;17.32;39.79
9855;BME280;4966;48.112;9.282;2023-04-27T10:35:41;94773.41;;;18.28;38.06
9855;BME280;4966;48.112;9.282;2023-04-27T10:38:14;94767.13;;;17.72;39.18
9855;BME280;4966;48.112;9.282;2023-04-27T10:40:43;94772.72;;;17.83;40.29
9855;BME280;4966;48.112;9.282;2023-04-27T10:43:10;94771.34;;;18.11;38.98
9855;BME280;4966;48.112;9.282;2023-04-27T10:45:36;94773.97;;;17.89;39.04
9855;BME280;4966;48.112;9.282;2023-04-27T10:48:02;94774.47;;;18.05;40.92
9855;BME280;4966;48.112;9.282;2023-04-27T10:50:28;94770.13;;;18.04;40.29
9855;BME280;4966;48.112;9.282;2023-04-27T10:52:59;94764.81;;;18.37;39.75
9855;BME280;4966;48.112;9.282;2023-04-27T10:55:26;94764.22;;;18.86;40.28
9855;BME280;4966;48.112;9.282;2023-04-27T10:57:54;94763.56;;;19.40;39.55
9855;BME280;4966;48.112;9.282;2023-04-27T11:00:38;94759.19;;;20.25;34.88
9855;BME280;4966;48.112;9.282;2023-04-27T11:03:14;94754.47;;;20.18;36.42
9855;BME280;4966;48.112;9.282;2023-04-27T11:05:42;94764.31;;;20.33;35.15
9855;BME280;4966;48.112;9.282;2023-04-27T11:08:11;94752.94;;;19.85;35.63
9855;BME280;4966;48.112;9.282;2023-04-27T11:10:40;94755.22;;;18.89;36.76
9855;BME280;4966;48.112;9.282;2023-04-27T11:15:48;94747.84;;;19.83;36.47
9855;BME280;4966;48.112;9.282;2023-04-27T11:18:17;94754.75;;;20.63;35.78
9855;BME280;4966;48.112;9.282;2023-04-27T11:20:54;94756.69;;;20.73;34.10
9855;BME280;4966;48.112;9.282;2023-04-27T11:23:30;94744.28;;;19.86;37.02
9855;BME280;4966;48.112;9.282;2023-04-27T11:26:15;94753.72;;;19.39;36.89
9855;BME280;4966;48.112;9.282;2023-04-27T11:29:01;94761.94;;;19.06;37.55
9855;BME280;4966;48.112;9.282;2023-04-27T11:31:46;94756.38;;;18.96;37.71
9855;BME280;4966;48.112;9.282;2023-04-27T11:34:23;94757.19;;;19.03;37.80
9855;BME280;4966;48.112;9.282;2023-04-27T11:37:03;94754.47;;;19.21;36.47
9855;BME280;4966;48.112;9.282;2023-04-27T11:39:34;94751.34;;;19.30;37.34
9855;BME280;4966;48.112;9.282;2023-04-27T11:42:20;94766.38;;;19.75;36.68
9855;BME280;4966;48.112;9.282;2023-04-27T11:44:57;94758.47;;;19.67;36.50
9855;BME280;4966;48.112;9.282;2023-04-27T11:47:28;94757.28;;;20.00;37.23
9855;BME280;4966;48.112;9.282;2023-04-27T11:49:56;94760.69;;;18.86;38.93
9855;BME280;4966;48.112;9.282;2023-04-27T11:52:27;94751.16;;;20.73;34.83
9855;BME280;4966;48.112;9.282;2023-04-27T11:54:53;94755.06;;;21.57;35.04
9855;BME280;4966;48.112;9.282;2023-04-27T11:57:28;94758.66;;;22.44;33.43
9855;BME280;4966;48.112;9.282;2023-04-27T11:59:55;94747.78;;;22.91;32.41
9855;BME280;4966;48.112;9.282;2023-04-27T12:02:22;94753.19;;;22.71;32.28
9855;BME280;4966;48.112;9.282;2023-04-27T12:04:51;94753.13;;;22.75;32.50
9855;BME280;4966;48.112;9.282;2023-04-27T12:07:17;94748.03;;;22.39;32.99
9855;BME280;4966;48.112;9.282;2023-04-27T12:09:43;94748.25;;;21.69;34.60
9855;BME280;4966;48.112;9.282;2023-04-27T12:12:10;94749.84;;;22.87;31.98
9855;BME280;4966;48.112;9.282;2023-04-27T12:14:38;94752.56;;;23.99;30.00
9855;BME280;4966;48.112;9.282;2023-04-27T12:17:05;94747.50;;;23.16;31.38
9855;BME280;4966;48.112;9.282;2023-04-27T12:19:34;94746.88;;;22.67;31.18
9855;BME280;4966;48.112;9.282;2023-04-27T12:22:01;94738.53;;;22.70;31.82
9855;BME280;4966;48.112;9.282;2023-04-27T12:24:27;94738.59;;;21.87;34.47
9855;BME280;4966;48.112;9.282;2023-04-27T12:26:53;94738.25;;;22.27;31.71
9855;BME280;4966;48.112;9.282;2023-04-27T12:29:20;94734.56;;;23.33;30.50
9855;BME280;4966;48.112;9.282;2023-04-27T12:31:46;94729.13;;;26.55;25.78
9855;BME280;4966;48.112;9.282;2023-04-27T12:34:15;94720.34;;;27.11;25.42
9855;BME280;4966;48.112;9.282;2023-04-27T12:36:41;94721.53;;;25.77;27.41
9855;BME280;4966;48.112;9.282;2023-04-27T12:39:17;94733.44;;;24.68;28.74
9855;BME280;4966;48.112;9.282;2023-04-27T12:41:44;94739.81;;;24.89;28.30
9855;BME280;4966;48.112;9.282;2023-04-27T12:44:11;94734.09;;;24.12;28.85
9855;BME280;4966;48.112;9.282;2023-04-27T12:46:41;94723.44;;;23.87;28.54
9855;BME280;4966;48.112;9.282;2023-04-27T12:49:10;94731.88;;;23.26;30.12
9855;BME280;4966;48.112;9.282;2023-04-27T12:51:37;94727.69;;;22.11;31.74
9855;BME280;4966;48.112;9.282;2023-04-27T12:54:03;94730.97;;;21.54;33.50
9855;BME280;4966;48.112;9.282;2023-04-27T12:56:30;94733.56;;;21.19;34.97
9855;BME280;4966;48.112;9.282;2023-04-27T12:58:55;94732.94;;;21.53;35.00
9855;BME280;4966;48.112;9.282;2023-04-27T13:01:22;94727.25;;;20.24;36.29
9855;BME280;4966;48.112;9.282;2023-04-27T13:03:52;94728.38;;;20.37;37.38
9855;BME280;4966;48.112;9.282;2023-04-27T13:06:21;94725.75;;;19.62;36.92
9855;BME280;4966;48.112;9.282;2023-04-27T13:08:50;94719.81;;;19.85;36.76
9855;BME280;4966;48.112;9.282;2023-04-27T13:11:18;94725.72;;;19.97;36.44
9855;BME280;4966;48.112;9.282;2023-04-27T13:13:45;94724.94;;;19.50;37.90
9855;BME280;4966;48.112;9.282;2023-04-27T13:16:12;94729.66;;;19.14;37.58
9855;BME280;4966;48.112;9.282;2023-04-27T13:18:39;94723.75;;;19.98;36.94
9855;BME280;4966;48.112;9.282;2023-04-27T13:21:06;94724.59;;;19.73;36.36
9855;BME280;4966;48.112;9.282;2023-04-27T13:23:33;94726.53;;;19.51;36.04
9855;BME280;4966;48.112;9.282;2023-04-27T13:26:01;94727.69;;;20.04;36.00
9855;BME280;4966;48.112;9.282;2023-04-27T13:28:27;94718.22;;;19.98;36.65
9855;BME280;4966;48.112;9.282;2023-04-27T13:30:53;94723.34;;;19.96;37.58
9855;BME280;4966;48.112;9.282;2023-04-27T13:33:19;94722.97;;;19.47;37.49
9855;BME280;4966;48.112;9.282;2023-04-27T13:35:44;94719.00;;;19.20;38.55
9855;BME280;4966;48.112;9.282;2023-04-27T13:38:13;94719.81;;;19.45;37.16
9855;BME280;4966;48.112;9.282;2023-04-27T13:40:39;94715.09;;;19.60;36.11
9855;BME280;4966;48.112;9.282;2023-04-27T13:43:10;94718.97;;;20.16;35.04
9855;BME280;4966;48.112;9.282;2023-04-27T13:45:35;94710.72;;;20.09;36.01